sensor_id;sensor_type;location;lat;lon;timestamp;P1;durP1;ratioP1;P2;durP2;ratioP2
53674;SDS011;39574;50.534;8.500;2023-06-24T00:01:59;8.5;;;5.3;;
53674;SDS011;39574;50.534;8.500;2023-06-24T00:06:59;8.4;;;5.4;;
53674;SDS011;39574;50.534;8.500;2023-06-24T00:11:58;8.8;;;5.4;;
53674;SDS011;39574;50.534;8.500;2023-06-24T00:16:57;9.2;;;5.6;;
53674;SDS011;39574;50.534;8.500;2023-06-24T00:21:57;9.1;;;5.5;;
53674;SDS011;39574;50.534;8.500;2023-06-24T00:26:56;8.7;;;5.5;;
53674;SDS011;39574;50.534;8.500;2023-06-24T00:31:55;9.2;;;5.6;;
53674;SDS011;39574;50.534;8.500;2023-06-24T00:36:55;9.2;;;5.7;;
53674;SDS011;39574;50.534;8.500;2023-06-24T00:41:54;9.2;;;5.6;;
53674;SDS011;39574;50.534;8.500;2023-06-24T00:46:54;9.0;;;5.6;;
53674;SDS011;39574;50.534;8.500;2023-06-24T00:51:53;8.4;;;5.5;;
53674;SDS011;39574;50.534;8.500;2023-06-24T00:56:53;8.7;;;5.4;;
53674;SDS011;39574;50.534;8.500;2023-06-24T01:01:52;9.0;;;5.5;;
53674;SDS011;39574;50.534;8.500;2023-06-24T01:06:51;9.3;;;5.4;;
53674;SDS011;39574;50.534;8.500;2023-06-24T01:11:50;9.1;;;5.3;;
53674;SDS011;39574;50.534;8.500;2023-06-24T01:16:52;9.6;;;5.3;;
53674;SDS011;39574;50.534;8.500;2023-06-24T01:21:51;9.3;;;5.4;;
53674;SDS011;39574;50.534;8.500;2023-06-24T01:26:57;9.3;;;5.5;;
53674;SDS011;39574;50.534;8.500;2023-06-24T01:31:48;9.0;;;5.5;;
53674;SDS011;39574;50.534;8.500;2023-06-24T01:36:49;9.1;;;5.7;;
53674;SDS011;39574;50.534;8.500;2023-06-24T01:41:48;9.7;;;5.7;;
53674;SDS011;39574;50.534;8.500;2023-06-24T01:46:46;9.6;;;5.8;;
53674;SDS011;39574;50.534;8.500;2023-06-24T01:51:45;9.5;;;5.7;;
53674;SDS011;39574;50.534;8.500;2023-06-24T01:56:45;9.7;;;5.6;;
53674;SDS011;39574;50.534;8.500;2023-06-24T02:01:44;9.3;;;5.7;;
53674;SDS011;39574;50.534;8.500;2023-06-24T02:06:48;9.1;;;5.6;;
53674;SDS011;39574;50.534;8.500;2023-06-24T02:11:42;9.1;;;5.6;;
53674;SDS011;39574;50.534;8.500;2023-06-24T02:16:42;8.9;;;5.6;;
53674;SDS011;39574;50.534;8.500;2023-06-24T02:21:41;9.9;;;5.7;;
53674;SDS011;39574;50.534;8.500;2023-06-24T02:26:40;9.6;;;5.7;;
53674;SDS011;39574;50.534;8.500;2023-06-24T02:31:40;9.3;;;5.6;;
53674;SDS011;39574;50.534;8.500;2023-06-24T02:36:39;9.1;;;5.6;;
53674;SDS011;39574;50.534;8.500;2023-06-24T02:41:38;9.3;;;5.6;;
53674;SDS011;39574;50.534;8.500;2023-06-24T02:46:38;9.7;;;5.6;;
53674;SDS011;39574;50.534;8.500;2023-06-24T02:51:38;9.5;;;5.7;;
53674;SDS011;39574;50.534;8.500;2023-06-24T02:56:37;9.1;;;5.7;;
53674;SDS011;39574;50.534;8.500;2023-06-24T03:01:36;9.1;;;5.8;;
53674;SDS011;39574;50.534;8.500;2023-06-24T03:06:35;9.1;;;5.8;;
53674;SDS011;39574;50.534;8.500;2023-06-24T03:11:39;8.9;;;5.7;;
53674;SDS011;39574;50.534;8.500;2023-06-24T03:16:34;9.1;;;5.8;;
53674;SDS011;39574;50.534;8.500;2023-06-24T03:21:33;8.9;;;5.8;;
53674;SDS011;39574;50.534;8.500;2023-06-24T03:26:33;9.2;;;5.8;;
53674;SDS011;39574;50.534;8.500;2023-06-24T03:31:32;9.2;;;6.0;;
53674;SDS011;39574;50.534;8.500;2023-06-24T03:36:31;10.1;;;6.0;;
53674;SDS011;39574;50.534;8.500;2023-06-24T03:41:30;10.4;;;6.1;;
53674;SDS011;39574;50.534;8.500;2023-06-24T03:46:30;10.2;;;6.1;;
53674;SDS011;39574;50.534;8.500;2023-06-24T03:51:29;10.0;;;6.2;;
53674;SDS011;39574;50.534;8.500;2023-06-24T03:56:28;9.5;;;6.2;;
53674;SDS011;39574;50.534;8.500;2023-06-24T04:01:28;9.2;;;6.2;;
53674;SDS011;39574;50.534;8.500;2023-06-24T04:06:27;8.8;;;6.1;;
53674;SDS011;39574;50.534;8.500;2023-06-24T04:11:26;9.1;;;6.1;;
53674;SDS011;39574;50.534;8.500;2023-06-24T04:16:25;9.6;;;6.2;;
53674;SDS011;39574;50.534;8.500;2023-06-24T04:21:25;9.9;;;6.3;;
53674;SDS011;39574;50.534;8.500;2023-06-24T04:26:24;10.2;;;6.4;;
53674;SDS011;39574;50.534;8.500;2023-06-24T04:31:23;10.5;;;6.4;;
53674;SDS011;39574;50.534;8.500;2023-06-24T04:36:23;10.5;;;6.3;;
53674;SDS011;39574;50.534;8.500;2023-06-24T04:41:22;9.6;;;6.0;;
53674;SDS011;39574;50.534;8.500;2023-06-24T04:46:21;9.0;;;5.9;;
53674;SDS011;39574;50.534;8.500;2023-06-24T04:51:20;8.7;;;6.0;;
53674;SDS011;39574;50.534;8.500;2023-06-24T04:56:20;9.2;;;6.1;;
53674;SDS011;39574;50.534;8.500;2023-06-24T05:01:19;9.2;;;6.2;;
53674;SDS011;39574;50.534;8.500;2023-06-24T05:06:18;9.3;;;6.3;;
53674;SDS011;39574;50.534;8.500;2023-06-24T05:11:18;9.4;;;6.3;;
53674;SDS011;39574;50.534;8.500;2023-06-24T05:16:17;9.2;;;6.2;;
53674;SDS011;39574;50.534;8.500;2023-06-24T05:21:17;9.1;;;6.1;;
53674;SDS011;39574;50.534;8.500;2023-06-24T05:26:16;9.0;;;6.0;;
53674;SDS011;39574;50.534;8.500;2023-06-24T05:31:15;8.8;;;5.9;;
53674;SDS011;39574;50.534;8.500;2023-06-24T05:36:14;10.0;;;6.4;;
53674;SDS011;39574;50.534;8.500;2023-06-24T05:41:14;11.0;;;6.9;;
53674;SDS011;39574;50.534;8.500;2023-06-24T05:46:13;10.5;;;6.7;;
53674;SDS011;39574;50.534;8.500;2023-06-24T05:51:13;10.8;;;6.5;;
53674;SDS011;39574;50.534;8.500;2023-06-24T05:56:12;10.2;;;6.3;;
53674;SDS011;39574;50.534;8.500;2023-06-24T06:01:11;9.7;;;6.1;;
53674;SDS011;39574;50.534;8.500;2023-06-24T06:06:11;9.8;;;6.0;;
53674;SDS011;39574;50.534;8.500;2023-06-24T06:11:10;9.7;;;6.1;;
53674;SDS011;39574;50.534;8.500;2023-06-24T06:16:09;9.7;;;6.0;;
53674;SDS011;39574;50.534;8.500;2023-06-24T06:21:09;9.7;;;6.0;;
53674;SDS011;39574;50.534;8.500;2023-06-24T06:26:08;9.7;;;6.0;;
53674;SDS011;39574;50.534;8.500;2023-06-24T06:31:08;10.0;;;5.9;;
53674;SDS011;39574;50.534;8.500;2023-06-24T06:36:07;9.2;;;5.7;;
53674;SDS011;39574;50.534;8.500;2023-06-24T06:41:07;9.1;;;5.7;;
53674;SDS011;39574;50.534;8.500;2023-06-24T06:46:06;9.1;;;5.5;;
53674;SDS011;39574;50.534;8.500;2023-06-24T06:51:06;9.0;;;5.5;;
53674;SDS011;39574;50.534;8.500;2023-06-24T06:56:05;9.0;;;5.5;;
53674;SDS011;39574;50.534;8.500;2023-06-24T07:01:05;9.2;;;5.5;;
53674;SDS011;39574;50.534;8.500;2023-06-24T07:06:04;9.3;;;5.6;;
53674;SDS011;39574;50.534;8.500;2023-06-24T07:11:04;9.2;;;5.5;;
53674;SDS011;39574;50.534;8.500;2023-06-24T07:16:03;9.3;;;5.5;;
53674;SDS011;39574;50.534;8.500;2023-06-24T07:21:03;9.6;;;5.6;;
53674;SDS011;39574;50.534;8.500;2023-06-24T07:26:03;9.6;;;5.7;;
53674;SDS011;39574;50.534;8.500;2023-06-24T07:31:02;9.5;;;5.5;;
53674;SDS011;39574;50.534;8.500;2023-06-24T07:36:02;9.1;;;5.5;;
53674;SDS011;39574;50.534;8.500;2023-06-24T07:41:01;8.7;;;5.3;;
53674;SDS011;39574;50.534;8.500;2023-06-24T07:46:01;8.4;;;5.1;;
53674;SDS011;39574;50.534;8.500;2023-06-24T07:51:01;8.2;;;5.0;;
53674;SDS011;39574;50.534;8.500;2023-06-24T07:56:00;8.7;;;4.9;;
53674;SDS011;39574;50.534;8.500;2023-06-24T08:01:00;8.3;;;5.0;;
53674;SDS011;39574;50.534;8.500;2023-06-24T08:06:00;8.2;;;4.9;;
53674;SDS011;39574;50.534;8.500;2023-06-24T08:10:59;8.2;;;4.8;;
53674;SDS011;39574;50.534;8.500;2023-06-24T08:15:59;7.8;;;4.7;;
53674;SDS011;39574;50.534;8.500;2023-06-24T08:20:59;7.6;;;4.5;;
53674;SDS011;39574;50.534;8.500;2023-06-24T08:25:59;7.5;;;4.3;;
53674;SDS011;39574;50.534;8.500;2023-06-24T08:30:58;7.0;;;4.1;;
53674;SDS011;39574;50.534;8.500;2023-06-24T08:35:58;8.1;;;4.2;;
53674;SDS011;39574;50.534;8.500;2023-06-24T08:40:58;8.0;;;4.1;;
53674;SDS011;39574;50.534;8.500;2023-06-24T08:45:58;8.3;;;4.3;;
53674;SDS011;39574;50.534;8.500;2023-06-24T08:50:58;8.2;;;4.3;;
53674;SDS011;39574;50.534;8.500;2023-06-24T08:55:57;7.8;;;4.5;;
53674;SDS011;39574;50.534;8.500;2023-06-24T09:00:57;7.7;;;4.7;;
53674;SDS011;39574;50.534;8.500;2023-06-24T09:05:57;8.5;;;4.9;;
53674;SDS011;39574;50.534;8.500;2023-06-24T09:10:56;8.3;;;4.9;;
53674;SDS011;39574;50.534;8.500;2023-06-24T09:15:57;10.1;;;5.5;;
53674;SDS011;39574;50.534;8.500;2023-06-24T09:20:56;10.1;;;5.6;;
53674;SDS011;39574;50.534;8.500;2023-06-24T09:25:56;10.0;;;5.4;;
53674;SDS011;39574;50.534;8.500;2023-06-24T09:31:04;9.8;;;5.4;;
53674;SDS011;39574;50.534;8.500;2023-06-24T09:35:56;8.8;;;4.8;;
53674;SDS011;39574;50.534;8.500;2023-06-24T09:41:01;9.0;;;4.8;;
53674;SDS011;39574;50.534;8.500;2023-06-24T09:45:55;8.6;;;4.8;;
53674;SDS011;39574;50.534;8.500;2023-06-24T09:50:56;8.3;;;4.5;;
53674;SDS011;39574;50.534;8.500;2023-06-24T09:55:55;7.5;;;4.3;;
53674;SDS011;39574;50.534;8.500;2023-06-24T10:00:55;7.6;;;4.0;;
53674;SDS011;39574;50.534;8.500;2023-06-24T10:05:55;7.0;;;3.8;;
53674;SDS011;39574;50.534;8.500;2023-06-24T10:10:55;7.0;;;3.8;;
53674;SDS011;39574;50.534;8.500;2023-06-24T10:15:55;7.1;;;3.9;;
53674;SDS011;39574;50.534;8.500;2023-06-24T10:20:55;6.9;;;3.9;;
53674;SDS011;39574;50.534;8.500;2023-06-24T10:25:54;6.9;;;3.9;;
53674;SDS011;39574;50.534;8.500;2023-06-24T10:30:55;6.9;;;3.8;;
53674;SDS011;39574;50.534;8.500;2023-06-24T10:35:54;6.5;;;3.7;;
53674;SDS011;39574;50.534;8.500;2023-06-24T10:40:54;6.2;;;3.5;;
53674;SDS011;39574;50.534;8.500;2023-06-24T10:45:55;6.6;;;3.6;;
53674;SDS011;39574;50.534;8.500;2023-06-24T10:50:54;7.0;;;3.9;;
53674;SDS011;39574;50.534;8.500;2023-06-24T10:55:56;7.0;;;3.9;;
53674;SDS011;39574;50.534;8.500;2023-06-24T11:01:05;6.5;;;3.5;;
53674;SDS011;39574;50.534;8.500;2023-06-24T11:05:54;6.5;;;3.3;;
53674;SDS011;39574;50.534;8.500;2023-06-24T11:10:54;6.0;;;3.1;;
53674;SDS011;39574;50.534;8.500;2023-06-24T11:15:54;5.8;;;3.0;;
53674;SDS011;39574;50.534;8.500;2023-06-24T11:20:54;5.7;;;3.0;;
53674;SDS011;39574;50.534;8.500;2023-06-24T11:25:54;5.5;;;3.1;;
53674;SDS011;39574;50.534;8.500;2023-06-24T11:30:54;5.8;;;3.3;;
53674;SDS011;39574;50.534;8.500;2023-06-24T11:35:54;5.7;;;3.3;;
53674;SDS011;39574;50.534;8.500;2023-06-24T11:40:57;5.8;;;3.2;;
53674;SDS011;39574;50.534;8.500;2023-06-24T11:45:54;6.1;;;3.4;;
53674;SDS011;39574;50.534;8.500;2023-06-24T11:50:54;5.9;;;3.2;;
53674;SDS011;39574;50.534;8.500;2023-06-24T11:55:55;5.9;;;3.4;;
53674;SDS011;39574;50.534;8.500;2023-06-24T12:00:55;6.1;;;3.3;;
53674;SDS011;39574;50.534;8.500;2023-06-24T12:05:55;6.8;;;3.5;;
53674;SDS011;39574;50.534;8.500;2023-06-24T12:10:55;7.1;;;3.7;;
53674;SDS011;39574;50.534;8.500;2023-06-24T12:15:54;6.8;;;3.7;;
53674;SDS011;39574;50.534;8.500;2023-06-24T12:20:54;6.7;;;3.7;;
53674;SDS011;39574;50.534;8.500;2023-06-24T12:25:54;7.1;;;3.9;;
53674;SDS011;39574;50.534;8.500;2023-06-24T12:30:54;6.7;;;3.9;;
53674;SDS011;39574;50.534;8.500;2023-06-24T12:35:55;7.0;;;3.9;;
53674;SDS011;39574;50.534;8.500;2023-06-24T12:40:54;6.7;;;3.9;;
53674;SDS011;39574;50.534;8.500;2023-06-24T12:55:54;7.1;;;4.1;;
53674;SDS011;39574;50.534;8.500;2023-06-24T13:00:54;7.0;;;4.1;;
53674;SDS011;39574;50.534;8.500;2023-06-24T13:10:54;7.1;;;4.2;;
53674;SDS011;39574;50.534;8.500;2023-06-24T13:15:54;7.0;;;4.2;;
53674;SDS011;39574;50.534;8.500;2023-06-24T13:20:54;6.6;;;4.0;;
53674;SDS011;39574;50.534;8.500;2023-06-24T13:25:54;6.8;;;4.1;;
53674;SDS011;39574;50.534;8.500;2023-06-24T13:30:54;6.6;;;3.9;;
53674;SDS011;39574;50.534;8.500;2023-06-24T13:35:54;6.7;;;4.0;;
53674;SDS011;39574;50.534;8.500;2023-06-24T13:40:55;6.8;;;3.9;;
53674;SDS011;39574;50.534;8.500;2023-06-24T13:45:54;6.5;;;3.9;;
53674;SDS011;39574;50.534;8.500;2023-06-24T13:50:54;6.9;;;3.9;;
53674;SDS011;39574;50.534;8.500;2023-06-24T14:05:55;6.5;;;3.8;;
53674;SDS011;39574;50.534;8.500;2023-06-24T14:10:55;6.8;;;3.7;;
53674;SDS011;39574;50.534;8.500;2023-06-24T14:15:55;6.6;;;3.9;;
53674;SDS011;39574;50.534;8.500;2023-06-24T14:20:55;6.6;;;3.8;;
53674;SDS011;39574;50.534;8.500;2023-06-24T14:25:55;7.3;;;3.9;;
53674;SDS011;39574;50.534;8.500;2023-06-24T14:30:55;8.2;;;4.1;;
53674;SDS011;39574;50.534;8.500;2023-06-24T14:35:55;8.0;;;4.1;;
53674;SDS011;39574;50.534;8.500;2023-06-24T14:40:55;7.7;;;4.1;;
53674;SDS011;39574;50.534;8.500;2023-06-24T14:45:55;7.2;;;3.9;;
53674;SDS011;39574;50.534;8.500;2023-06-24T14:50:55;7.2;;;3.9;;
53674;SDS011;39574;50.534;8.500;2023-06-24T14:55:55;6.8;;;3.9;;
53674;SDS011;39574;50.534;8.500;2023-06-24T15:00:55;6.5;;;3.9;;
53674;SDS011;39574;50.534;8.500;2023-06-24T15:05:55;6.9;;;3.9;;
53674;SDS011;39574;50.534;8.500;2023-06-24T15:10:55;7.2;;;4.0;;
53674;SDS011;39574;50.534;8.500;2023-06-24T15:20:55;6.8;;;3.9;;
53674;SDS011;39574;50.534;8.500;2023-06-24T15:25:55;6.6;;;3.8;;
53674;SDS011;39574;50.534;8.500;2023-06-24T15:30:55;6.3;;;3.7;;
53674;SDS011;39574;50.534;8.500;2023-06-24T15:35:55;7.0;;;4.0;;
53674;SDS011;39574;50.534;8.500;2023-06-24T15:40:55;7.5;;;4.2;;
53674;SDS011;39574;50.534;8.500;2023-06-24T15:45:55;7.3;;;4.3;;
53674;SDS011;39574;50.534;8.500;2023-06-24T15:50:55;7.3;;;4.2;;
53674;SDS011;39574;50.534;8.500;2023-06-24T15:55:55;7.0;;;4.3;;
53674;SDS011;39574;50.534;8.500;2023-06-24T16:00:55;7.0;;;4.4;;
53674;SDS011;39574;50.534;8.500;2023-06-24T16:05:55;6.9;;;4.4;;
53674;SDS011;39574;50.534;8.500;2023-06-24T16:10:55;7.0;;;4.2;;
53674;SDS011;39574;50.534;8.500;2023-06-24T16:15:55;6.7;;;4.0;;
53674;SDS011;39574;50.534;8.500;2023-06-24T16:25:55;6.8;;;4.0;;
53674;SDS011;39574;50.534;8.500;2023-06-24T16:35:55;6.8;;;3.9;;
53674;SDS011;39574;50.534;8.500;2023-06-24T16:40:55;7.5;;;4.0;;
53674;SDS011;39574;50.534;8.500;2023-06-24T16:45:55;8.3;;;4.3;;
53674;SDS011;39574;50.534;8.500;2023-06-24T17:00:56;8.1;;;4.3;;
53674;SDS011;39574;50.534;8.500;2023-06-24T17:05:55;7.8;;;4.2;;
53674;SDS011;39574;50.534;8.500;2023-06-24T17:10:55;7.5;;;4.1;;
53674;SDS011;39574;50.534;8.500;2023-06-24T17:25:55;7.0;;;4.2;;
53674;SDS011;39574;50.534;8.500;2023-06-24T17:30:55;6.8;;;4.1;;
53674;SDS011;39574;50.534;8.500;2023-06-24T17:35:55;7.0;;;4.3;;
53674;SDS011;39574;50.534;8.500;2023-06-24T17:40:55;7.1;;;4.3;;
53674;SDS011;39574;50.534;8.500;2023-06-24T17:45:55;7.6;;;4.3;;
53674;SDS011;39574;50.534;8.500;2023-06-24T17:50:56;7.6;;;4.3;;
53674;SDS011;39574;50.534;8.500;2023-06-24T17:55:55;7.5;;;4.2;;
53674;SDS011;39574;50.534;8.500;2023-06-24T18:00:55;7.7;;;4.3;;
53674;SDS011;39574;50.534;8.500;2023-06-24T18:05:55;7.5;;;4.2;;
53674;SDS011;39574;50.534;8.500;2023-06-24T18:10:55;7.2;;;4.3;;
53674;SDS011;39574;50.534;8.500;2023-06-24T18:15:55;7.6;;;4.3;;
53674;SDS011;39574;50.534;8.500;2023-06-24T18:20:55;7.8;;;4.4;;
53674;SDS011;39574;50.534;8.500;2023-06-24T18:25:55;7.7;;;4.2;;
53674;SDS011;39574;50.534;8.500;2023-06-24T18:30:55;7.5;;;4.0;;
53674;SDS011;39574;50.534;8.500;2023-06-24T18:35:55;7.0;;;3.9;;
53674;SDS011;39574;50.534;8.500;2023-06-24T18:40:55;7.0;;;3.8;;
53674;SDS011;39574;50.534;8.500;2023-06-24T18:50:54;7.1;;;4.2;;
53674;SDS011;39574;50.534;8.500;2023-06-24T18:55:54;7.6;;;4.5;;
53674;SDS011;39574;50.534;8.500;2023-06-24T19:10:54;8.0;;;4.7;;
53674;SDS011;39574;50.534;8.500;2023-06-24T19:15:53;8.4;;;5.0;;
53674;SDS011;39574;50.534;8.500;2023-06-24T19:20:53;8.8;;;5.3;;
53674;SDS011;39574;50.534;8.500;2023-06-24T19:25:53;8.2;;;5.0;;
53674;SDS011;39574;50.534;8.500;2023-06-24T19:30:53;8.3;;;4.8;;
53674;SDS011;39574;50.534;8.500;2023-06-24T19:40:52;8.6;;;4.6;;
53674;SDS011;39574;50.534;8.500;2023-06-24T19:45:52;8.5;;;4.6;;
53674;SDS011;39574;50.534;8.500;2023-06-24T19:50:52;8.6;;;4.6;;
53674;SDS011;39574;50.534;8.500;2023-06-24T19:55:51;8.4;;;4.7;;
53674;SDS011;39574;50.534;8.500;2023-06-24T20:00:51;8.3;;;5.1;;
53674;SDS011;39574;50.534;8.500;2023-06-24T20:10:50;8.3;;;5.0;;
53674;SDS011;39574;50.534;8.500;2023-06-24T20:35:48;9.8;;;5.4;;
53674;SDS011;39574;50.534;8.500;2023-06-24T20:40:48;9.5;;;5.5;;
53674;SDS011;39574;50.534;8.500;2023-06-24T20:45:48;9.7;;;5.5;;
53674;SDS011;39574;50.534;8.500;2023-06-24T20:50:47;9.6;;;5.6;;
53674;SDS011;39574;50.534;8.500;2023-06-24T20:55:47;9.7;;;5.7;;
53674;SDS011;39574;50.534;8.500;2023-06-24T21:00:47;9.2;;;5.6;;
53674;SDS011;39574;50.534;8.500;2023-06-24T21:05:46;9.0;;;5.5;;
53674;SDS011;39574;50.534;8.500;2023-06-24T21:10:46;9.1;;;5.4;;
53674;SDS011;39574;50.534;8.500;2023-06-24T21:15:45;8.9;;;5.4;;
53674;SDS011;39574;50.534;8.500;2023-06-24T21:20:45;9.2;;;5.6;;
53674;SDS011;39574;50.534;8.500;2023-06-24T21:25:45;10.1;;;6.1;;
53674;SDS011;39574;50.534;8.500;2023-06-24T21:30:44;10.4;;;6.4;;
53674;SDS011;39574;50.534;8.500;2023-06-24T21:35:44;10.7;;;6.2;;
53674;SDS011;39574;50.534;8.500;2023-06-24T21:40:43;9.9;;;6.0;;
53674;SDS011;39574;50.534;8.500;2023-06-24T21:45:43;9.5;;;5.8;;
53674;SDS011;39574;50.534;8.500;2023-06-24T21:50:43;9.7;;;5.7;;
53674;SDS011;39574;50.534;8.500;2023-06-24T21:55:42;9.1;;;5.6;;
53674;SDS011;39574;50.534;8.500;2023-06-24T22:00:42;8.8;;;5.4;;
53674;SDS011;39574;50.534;8.500;2023-06-24T22:05:41;8.9;;;5.5;;
53674;SDS011;39574;50.534;8.500;2023-06-24T22:10:41;8.9;;;5.6;;
53674;SDS011;39574;50.534;8.500;2023-06-24T22:15:40;9.4;;;5.7;;
53674;SDS011;39574;50.534;8.500;2023-06-24T22:20:40;9.7;;;5.9;;
53674;SDS011;39574;50.534;8.500;2023-06-24T22:25:40;9.6;;;5.9;;
53674;SDS011;39574;50.534;8.500;2023-06-24T22:30:39;9.6;;;5.8;;
53674;SDS011;39574;50.534;8.500;2023-06-24T22:35:39;9.8;;;5.8;;
53674;SDS011;39574;50.534;8.500;2023-06-24T22:40:38;9.9;;;5.8;;
53674;SDS011;39574;50.534;8.500;2023-06-24T22:45:38;9.8;;;5.8;;
53674;SDS011;39574;50.534;8.500;2023-06-24T22:50:37;9.5;;;5.9;;
53674;SDS011;39574;50.534;8.500;2023-06-24T22:55:37;10.5;;;6.1;;
53674;SDS011;39574;50.534;8.500;2023-06-24T23:00:36;10.0;;;6.0;;
53674;SDS011;39574;50.534;8.500;2023-06-24T23:05:36;9.9;;;6.1;;
53674;SDS011;39574;50.534;8.500;2023-06-24T23:10:36;9.8;;;6.1;;
53674;SDS011;39574;50.534;8.500;2023-06-24T23:15:35;9.2;;;5.8;;
53674;SDS011;39574;50.534;8.500;2023-06-24T23:20:34;9.2;;;5.8;;
53674;SDS011;39574;50.534;8.500;2023-06-24T23:25:34;9.3;;;5.7;;
53674;SDS011;39574;50.534;8.500;2023-06-24T23:30:33;9.7;;;5.8;;
53674;SDS011;39574;50.534;8.500;2023-06-24T23:35:33;9.5;;;5.9;;
53674;SDS011;39574;50.534;8.500;2023-06-24T23:40:32;9.5;;;6.1;;
53674;SDS011;39574;50.534;8.500;2023-06-24T23:45:32;10.4;;;6.2;;
53674;SDS011;39574;50.534;8.500;2023-06-24T23:50:31;10.9;;;6.2;;
53674;SDS011;39574;50.534;8.500;2023-06-24T23:55:30;10.8;;;6.1;;
